createdAt,value
2022-08-29T00:00:45.000Z,66.78
2022-08-29T00:01:45.000Z,67.39
2022-08-29T00:02:49.000Z,67.28
2022-08-29T00:03:45.000Z,67.14
2022-08-29T00:04:45.000Z,67.50
2022-08-29T00:05:45.000Z,66.93
2022-08-29T00:06:45.000Z,67.34
2022-08-29T00:07:45.000Z,67.12
2022-08-29T00:08:45.000Z,67.55
2022-08-29T00:09:44.000Z,68.24
2022-08-29T00:10:45.000Z,68.25
2022-08-29T00:11:44.000Z,68.33
2022-08-29T00:12:45.000Z,68.80
2022-08-29T00:13:45.000Z,68.87
2022-08-29T00:14:45.000Z,68.80
2022-08-29T00:15:45.000Z,68.60
2022-08-29T00:16:44.000Z,68.91
2022-08-29T00:17:45.000Z,67.14
2022-08-29T00:18:44.000Z,68.08
2022-08-29T00:19:44.000Z,68.35
2022-08-29T00:20:45.000Z,68.08
2022-08-29T00:21:44.000Z,67.85
2022-08-29T00:22:45.000Z,68.79
2022-08-29T00:23:45.000Z,69.14
2022-08-29T00:24:44.000Z,70.43
2022-08-29T00:25:45.000Z,70.87
2022-08-29T00:26:44.000Z,70.50
2022-08-29T00:27:45.000Z,69.70
2022-08-29T00:28:45.000Z,69.70
2022-08-29T00:29:44.000Z,70.15
2022-08-29T00:30:45.000Z,70.11
2022-08-29T00:31:45.000Z,70.09
2022-08-29T00:32:45.000Z,69.53
2022-08-29T00:33:45.000Z,69.49
2022-08-29T00:34:44.000Z,70.71
2022-08-29T00:35:45.000Z,70.04
2022-08-29T00:36:44.000Z,70.21
2022-08-29T00:37:45.000Z,69.69
2022-08-29T00:38:45.000Z,69.37
2022-08-29T00:39:45.000Z,70.10
2022-08-29T00:40:48.000Z,68.69
2022-08-29T00:41:45.000Z,69.10
2022-08-29T00:42:45.000Z,69.92
2022-08-29T00:43:45.000Z,69.89
2022-08-29T00:44:45.000Z,69.28
2022-08-29T00:46:05.000Z,69.05
2022-08-29T00:46:50.000Z,69.34
2022-08-29T00:47:50.000Z,68.53
2022-08-29T00:48:51.000Z,69.10
2022-08-29T00:49:49.000Z,69.78
2022-08-29T00:50:52.000Z,69.79
2022-08-29T00:51:46.000Z,69.40
2022-08-29T00:52:46.000Z,69.06
2022-08-29T00:53:51.000Z,68.82
2022-08-29T00:54:49.000Z,69.30
2022-08-29T00:55:46.000Z,69.77
2022-08-29T00:56:45.000Z,69.43
2022-08-29T00:57:49.000Z,69.71
2022-08-29T00:58:59.000Z,69.80
2022-08-29T00:59:47.000Z,69.26
2022-08-29T01:00:47.000Z,69.27
2022-08-29T01:01:45.000Z,69.77
2022-08-29T01:02:46.000Z,69.77
2022-08-29T01:03:45.000Z,69.44
2022-08-29T01:04:45.000Z,69.37
2022-08-29T01:05:45.000Z,69.11
2022-08-29T01:06:45.000Z,69.91
2022-08-29T01:07:46.000Z,69.86
2022-08-29T01:08:45.000Z,69.83
2022-08-29T01:09:45.000Z,69.56
2022-08-29T01:10:50.000Z,69.50
2022-08-29T01:11:50.000Z,70.28
2022-08-29T01:12:44.000Z,70.58
2022-08-29T01:13:47.000Z,70.21
2022-08-29T01:14:50.000Z,70.15
2022-08-29T01:15:45.000Z,70.55
2022-08-29T01:16:48.000Z,70.36
2022-08-29T01:17:45.000Z,70.06
2022-08-29T01:18:49.000Z,70.15
2022-08-29T01:19:54.000Z,70.42
2022-08-29T01:21:00.000Z,70.22
2022-08-29T01:21:53.000Z,69.88
2022-08-29T01:22:56.000Z,70.27
2022-08-29T01:24:07.000Z,70.01
2022-08-29T01:24:51.000Z,69.73
2022-08-29T01:25:48.000Z,70.41
2022-08-29T01:26:46.000Z,70.27
2022-08-29T01:27:50.000Z,70.11
2022-08-29T01:28:49.000Z,69.94
2022-08-29T01:29:45.000Z,69.92
2022-08-29T01:30:54.000Z,70.11
2022-08-29T01:31:47.000Z,69.84
2022-08-29T01:32:48.000Z,69.90
2022-08-29T01:33:49.000Z,69.88
2022-08-29T01:34:44.000Z,69.58
2022-08-29T01:35:44.000Z,69.40
2022-08-29T01:36:52.000Z,70.27
2022-08-29T01:37:45.000Z,70.26
2022-08-29T01:38:45.000Z,70.27
2022-08-29T01:39:45.000Z,70.06
2022-08-29T01:40:45.000Z,70.40
2022-08-29T01:41:44.000Z,70.59
2022-08-29T01:42:44.000Z,70.44
2022-08-29T01:43:49.000Z,70.18
2022-08-29T01:44:50.000Z,70.01
2022-08-29T01:45:45.000Z,69.91
2022-08-29T01:46:49.000Z,69.50
2022-08-29T01:47:44.000Z,69.52
2022-08-29T01:48:45.000Z,69.45
2022-08-29T01:49:45.000Z,69.87
2022-08-29T01:50:45.000Z,70.18
2022-08-29T01:51:44.000Z,70.18
2022-08-29T01:52:44.000Z,70.01
2022-08-29T01:53:45.000Z,69.77
2022-08-29T01:54:45.000Z,69.62
2022-08-29T01:55:44.000Z,69.46
2022-08-29T01:56:50.000Z,69.87
2022-08-29T01:57:44.000Z,70.02
2022-08-29T01:58:46.000Z,70.28
2022-08-29T01:59:45.000Z,70.66
2022-08-29T02:00:44.000Z,70.49
2022-08-29T02:01:57.000Z,70.61
2022-08-29T02:02:44.000Z,70.29
2022-08-29T02:03:44.000Z,70.01
2022-08-29T02:04:46.000Z,71.05
2022-08-29T02:05:46.000Z,71.22
2022-08-29T02:06:44.000Z,70.69
2022-08-29T02:07:44.000Z,70.35
2022-08-29T02:08:45.000Z,70.14
2022-08-29T02:09:46.000Z,70.37
2022-08-29T02:10:47.000Z,70.44
2022-08-29T02:11:46.000Z,70.15
2022-08-29T02:12:45.000Z,70.25
2022-08-29T02:13:52.000Z,70.59
2022-08-29T02:14:46.000Z,70.88
2022-08-29T02:15:45.000Z,70.84
2022-08-29T02:16:46.000Z,70.80
2022-08-29T02:17:46.000Z,71.17
2022-08-29T02:18:45.000Z,70.99
2022-08-29T02:19:45.000Z,70.85
2022-08-29T02:20:45.000Z,70.61
2022-08-29T02:21:45.000Z,70.41
2022-08-29T02:22:45.000Z,70.34
2022-08-29T02:23:49.000Z,70.86
2022-08-29T02:24:45.000Z,70.37
2022-08-29T02:25:46.000Z,70.34
2022-08-29T02:26:45.000Z,70.38
2022-08-29T02:27:45.000Z,70.24
2022-08-29T02:28:45.000Z,70.71
2022-08-29T02:29:45.000Z,70.45
2022-08-29T02:30:49.000Z,70.44
2022-08-29T02:31:45.000Z,70.79
2022-08-29T02:32:46.000Z,70.91
2022-08-29T02:33:45.000Z,71.05
2022-08-29T02:34:45.000Z,70.53
2022-08-29T02:35:46.000Z,70.61
2022-08-29T02:36:45.000Z,70.74
2022-08-29T02:37:45.000Z,70.56
2022-08-29T02:38:45.000Z,70.76
2022-08-29T02:39:45.000Z,70.22
2022-08-29T02:40:47.000Z,71.08
2022-08-29T02:41:44.000Z,70.91
2022-08-29T02:42:44.000Z,70.71
2022-08-29T02:43:44.000Z,70.74
2022-08-29T02:44:44.000Z,70.52
2022-08-29T02:45:45.000Z,70.48
2022-08-29T02:46:45.000Z,70.64
2022-08-29T02:47:44.000Z,71.19
2022-08-29T02:48:46.000Z,70.99
2022-08-29T02:49:45.000Z,70.86
2022-08-29T02:50:49.000Z,70.52
2022-08-29T02:51:45.000Z,70.87
2022-08-29T02:52:45.000Z,70.80
2022-08-29T02:53:45.000Z,70.67
2022-08-29T02:54:45.000Z,70.67
2022-08-29T02:55:46.000Z,70.98
2022-08-29T02:56:44.000Z,71.07
2022-08-29T02:57:45.000Z,70.99
2022-08-29T02:58:46.000Z,70.85
2022-08-29T02:59:45.000Z,70.65
2022-08-29T03:00:45.000Z,70.37
2022-08-29T03:01:44.000Z,70.97
2022-08-29T03:02:45.000Z,70.91
2022-08-29T03:03:45.000Z,70.77
2022-08-29T03:04:45.000Z,70.79
2022-08-29T03:05:45.000Z,70.93
2022-08-29T03:06:45.000Z,71.25
2022-08-29T03:07:46.000Z,71.18
2022-08-29T03:08:45.000Z,71.05
2022-08-29T03:09:44.000Z,71.35
2022-08-29T03:10:45.000Z,71.11
2022-08-29T03:11:45.000Z,71.02
2022-08-29T03:12:45.000Z,71.70
2022-08-29T03:13:45.000Z,71.20
2022-08-29T03:14:44.000Z,71.06
2022-08-29T03:15:45.000Z,71.37
2022-08-29T03:16:44.000Z,71.29
2022-08-29T03:17:45.000Z,71.35
2022-08-29T03:18:44.000Z,71.28
2022-08-29T03:19:45.000Z,71.81
2022-08-29T03:20:45.000Z,72.12
2022-08-29T03:21:44.000Z,71.68
2022-08-29T03:22:47.000Z,71.82
2022-08-29T03:23:47.000Z,71.42
2022-08-29T03:24:45.000Z,71.21
2022-08-29T03:25:45.000Z,71.24
2022-08-29T03:26:44.000Z,70.95
2022-08-29T03:27:45.000Z,71.74
2022-08-29T03:28:45.000Z,71.64
2022-08-29T03:29:45.000Z,71.18
2022-08-29T03:30:46.000Z,71.69
2022-08-29T03:31:45.000Z,71.64
2022-08-29T03:32:45.000Z,71.22
2022-08-29T03:33:45.000Z,71.03
2022-08-29T03:34:45.000Z,71.03
2022-08-29T03:35:44.000Z,71.06
2022-08-29T03:36:44.000Z,70.39
2022-08-29T03:37:45.000Z,70.28
2022-08-29T03:38:45.000Z,70.50
2022-08-29T03:39:45.000Z,70.52
2022-08-29T03:40:44.000Z,70.22
2022-08-29T03:41:45.000Z,70.26
2022-08-29T03:42:45.000Z,70.06
2022-08-29T03:43:45.000Z,69.93
2022-08-29T03:44:45.000Z,70.22
2022-08-29T03:45:44.000Z,70.14
2022-08-29T03:46:45.000Z,70.01
2022-08-29T03:47:44.000Z,70.07
2022-08-29T03:48:44.000Z,70.16
2022-08-29T03:49:44.000Z,70.10
2022-08-29T03:50:44.000Z,70.30
2022-08-29T03:51:44.000Z,70.21
2022-08-29T03:52:45.000Z,70.27
2022-08-29T03:53:44.000Z,70.25
2022-08-29T03:54:44.000Z,69.90
2022-08-29T03:55:44.000Z,69.59
2022-08-29T03:56:44.000Z,69.46
2022-08-29T03:57:45.000Z,69.38
2022-08-29T03:58:47.000Z,68.94
2022-08-29T03:59:46.000Z,69.08
2022-08-29T04:00:45.000Z,69.27
2022-08-29T04:01:47.000Z,69.24
2022-08-29T04:02:46.000Z,69.09
2022-08-29T04:03:44.000Z,68.67
2022-08-29T04:04:49.000Z,68.92
2022-08-29T04:05:44.000Z,68.80
2022-08-29T04:06:44.000Z,68.68
2022-08-29T04:07:51.000Z,69.01
2022-08-29T04:08:45.000Z,69.08
2022-08-29T04:09:44.000Z,69.13
2022-08-29T04:10:44.000Z,69.67
2022-08-29T04:11:44.000Z,69.56
2022-08-29T04:12:44.000Z,70.24
2022-08-29T04:13:46.000Z,69.98
2022-08-29T04:14:45.000Z,70.00
2022-08-29T04:15:44.000Z,69.81
2022-08-29T04:16:46.000Z,70.26
2022-08-29T04:17:45.000Z,70.32
2022-08-29T04:18:44.000Z,70.24
2022-08-29T04:19:44.000Z,70.39
2022-08-29T04:20:44.000Z,70.27
2022-08-29T04:21:45.000Z,69.96
2022-08-29T04:22:45.000Z,70.32
2022-08-29T04:23:44.000Z,70.08
2022-08-29T04:24:44.000Z,69.94
2022-08-29T04:25:44.000Z,69.81
2022-08-29T04:26:45.000Z,69.96
2022-08-29T04:27:44.000Z,69.69
2022-08-29T04:28:44.000Z,69.67
2022-08-29T04:29:47.000Z,69.87
2022-08-29T04:30:46.000Z,69.50
2022-08-29T04:31:44.000Z,69.93
2022-08-29T04:32:45.000Z,69.48
2022-08-29T04:33:46.000Z,69.29
2022-08-29T04:34:44.000Z,69.29
2022-08-29T04:35:44.000Z,69.47
2022-08-29T04:36:45.000Z,69.50
2022-08-29T04:37:44.000Z,69.68
2022-08-29T04:38:44.000Z,70.11
2022-08-29T04:39:44.000Z,70.06
2022-08-29T04:40:45.000Z,69.88
2022-08-29T04:41:44.000Z,69.70
2022-08-29T04:42:46.000Z,69.75
2022-08-29T04:43:45.000Z,69.62
2022-08-29T04:44:45.000Z,69.61
2022-08-29T04:45:52.000Z,69.45
2022-08-29T04:46:44.000Z,69.42
2022-08-29T04:47:45.000Z,69.29
2022-08-29T04:48:46.000Z,69.26
2022-08-29T04:49:44.000Z,69.26
2022-08-29T04:50:52.000Z,69.44
2022-08-29T04:51:44.000Z,69.66
2022-08-29T04:52:45.000Z,69.75
2022-08-29T04:53:45.000Z,69.39
2022-08-29T04:54:44.000Z,69.39
2022-08-29T04:55:54.000Z,69.53
2022-08-29T04:56:44.000Z,69.79
2022-08-29T04:57:45.000Z,69.69
2022-08-29T04:58:46.000Z,70.02
2022-08-29T04:59:46.000Z,69.86
2022-08-29T05:00:44.000Z,70.07
2022-08-29T05:01:45.000Z,70.49
2022-08-29T05:02:45.000Z,70.54
2022-08-29T05:03:45.000Z,69.95
2022-08-29T05:04:47.000Z,70.33
2022-08-29T05:05:52.000Z,70.08
2022-08-29T05:06:44.000Z,69.71
2022-08-29T05:07:45.000Z,70.13
2022-08-29T05:08:45.000Z,70.18
2022-08-29T05:09:54.000Z,69.63
2022-08-29T05:10:44.000Z,69.60
2022-08-29T05:11:44.000Z,69.57
2022-08-29T05:12:45.000Z,69.56
2022-08-29T05:13:46.000Z,69.77
2022-08-29T05:14:45.000Z,69.71
2022-08-29T05:15:45.000Z,69.35
2022-08-29T05:16:46.000Z,69.34
2022-08-29T05:17:45.000Z,69.20
2022-08-29T05:18:45.000Z,69.21
2022-08-29T05:19:45.000Z,69.24
2022-08-29T05:20:47.000Z,69.18
2022-08-29T05:21:45.000Z,69.08
2022-08-29T05:22:45.000Z,68.90
2022-08-29T05:23:45.000Z,68.98
2022-08-29T05:24:46.000Z,68.76
2022-08-29T05:25:54.000Z,68.65
2022-08-29T05:26:45.000Z,68.35
2022-08-29T05:27:45.000Z,67.57
2022-08-29T05:28:45.000Z,67.55
2022-08-29T05:29:47.000Z,67.35
2022-08-29T05:30:45.000Z,66.81
2022-08-29T05:31:47.000Z,66.56
2022-08-29T05:32:45.000Z,66.92
2022-08-29T05:33:45.000Z,66.95
2022-08-29T05:34:46.000Z,66.71
2022-08-29T05:35:45.000Z,66.78
2022-08-29T05:36:45.000Z,66.39
2022-08-29T05:37:45.000Z,65.79
2022-08-29T05:38:45.000Z,65.32
2022-08-29T05:39:46.000Z,65.10
2022-08-29T05:40:45.000Z,65.22
2022-08-29T05:41:45.000Z,65.16
2022-08-29T05:42:45.000Z,64.85
2022-08-29T05:43:45.000Z,64.98
2022-08-29T05:44:45.000Z,65.01
2022-08-29T05:45:44.000Z,65.45
2022-08-29T05:46:45.000Z,65.24
2022-08-29T05:47:44.000Z,65.53
2022-08-29T05:48:44.000Z,65.01
2022-08-29T05:49:46.000Z,65.33
2022-08-29T05:50:44.000Z,64.90
2022-08-29T05:51:44.000Z,64.51
2022-08-29T05:52:44.000Z,65.05
2022-08-29T05:53:45.000Z,65.22
2022-08-29T05:54:45.000Z,65.12
2022-08-29T05:55:44.000Z,64.82
2022-08-29T05:56:44.000Z,64.88
2022-08-29T05:57:44.000Z,64.88
2022-08-29T05:58:44.000Z,64.65
2022-08-29T05:59:46.000Z,64.76
2022-08-29T06:00:46.000Z,64.72
2022-08-29T06:01:45.000Z,65.36
2022-08-29T06:02:44.000Z,65.07
2022-08-29T06:03:44.000Z,64.17
2022-08-29T06:04:44.000Z,64.38
2022-08-29T06:05:49.000Z,64.45
2022-08-29T06:06:44.000Z,64.55
2022-08-29T06:07:44.000Z,64.50
2022-08-29T06:08:44.000Z,64.69
2022-08-29T06:09:45.000Z,64.46
2022-08-29T06:10:45.000Z,64.46
2022-08-29T06:11:47.000Z,64.51
2022-08-29T06:12:44.000Z,64.57
2022-08-29T06:13:44.000Z,64.78
2022-08-29T06:14:44.000Z,64.89
2022-08-29T06:15:44.000Z,64.61
2022-08-29T06:16:44.000Z,64.32
2022-08-29T06:17:44.000Z,64.41
2022-08-29T06:18:44.000Z,64.40
2022-08-29T06:19:49.000Z,64.02
2022-08-29T06:20:45.000Z,64.28
2022-08-29T06:21:45.000Z,64.22
2022-08-29T06:22:44.000Z,64.32
2022-08-29T06:23:47.000Z,64.37
2022-08-29T06:24:44.000Z,64.21
2022-08-29T06:25:54.000Z,63.95
2022-08-29T06:26:44.000Z,64.07
2022-08-29T06:27:44.000Z,64.24
2022-08-29T06:28:45.000Z,63.75
2022-08-29T06:29:44.000Z,64.04
2022-08-29T06:30:44.000Z,63.97
2022-08-29T06:31:44.000Z,63.68
2022-08-29T06:32:44.000Z,63.64
2022-08-29T06:33:45.000Z,63.39
2022-08-29T06:34:44.000Z,63.46
2022-08-29T06:35:44.000Z,62.82
2022-08-29T06:36:44.000Z,63.24
2022-08-29T06:37:44.000Z,62.94
2022-08-29T06:38:45.000Z,62.94
2022-08-29T06:39:44.000Z,62.90
2022-08-29T06:40:44.000Z,62.71
2022-08-29T06:41:45.000Z,62.53
2022-08-29T06:42:44.000Z,63.04
2022-08-29T06:43:44.000Z,63.32
2022-08-29T06:44:45.000Z,64.08
2022-08-29T06:45:45.000Z,63.71
2022-08-29T06:46:46.000Z,63.62
2022-08-29T06:47:46.000Z,63.39
2022-08-29T06:48:45.000Z,63.40
2022-08-29T06:49:45.000Z,63.73
2022-08-29T06:50:44.000Z,63.68
2022-08-29T06:51:49.000Z,63.56
2022-08-29T06:52:44.000Z,63.62
2022-08-29T06:53:45.000Z,63.55
2022-08-29T06:54:44.000Z,62.96
2022-08-29T06:55:45.000Z,63.25
2022-08-29T06:56:45.000Z,63.12
2022-08-29T06:57:44.000Z,63.01
2022-08-29T06:58:45.000Z,62.58
2022-08-29T06:59:44.000Z,62.53
2022-08-29T07:00:45.000Z,62.76
2022-08-29T07:01:46.000Z,62.44
2022-08-29T07:02:45.000Z,63.04
2022-08-29T07:03:45.000Z,63.05
2022-08-29T07:04:44.000Z,62.99
2022-08-29T07:05:50.000Z,62.91
2022-08-29T07:06:44.000Z,62.91
2022-08-29T07:07:44.000Z,62.79
2022-08-29T07:08:45.000Z,63.08
2022-08-29T07:09:44.000Z,62.51
2022-08-29T07:10:44.000Z,61.86
2022-08-29T07:11:44.000Z,62.09
2022-08-29T07:12:44.000Z,62.66
2022-08-29T07:13:45.000Z,62.57
2022-08-29T07:14:45.000Z,62.42
2022-08-29T07:15:44.000Z,62.07
2022-08-29T07:16:45.000Z,62.22
2022-08-29T07:17:45.000Z,62.01
2022-08-29T07:18:45.000Z,61.45
2022-08-29T07:19:44.000Z,61.71
2022-08-29T07:20:45.000Z,61.71
2022-08-29T07:21:44.000Z,62.14
2022-08-29T07:22:49.000Z,62.07
2022-08-29T07:23:44.000Z,62.20
2022-08-29T07:24:44.000Z,62.41
2022-08-29T07:25:44.000Z,62.33
2022-08-29T07:26:44.000Z,61.88
2022-08-29T07:27:46.000Z,62.58
2022-08-29T07:28:47.000Z,61.93
2022-08-29T07:29:44.000Z,62.01
2022-08-29T07:30:44.000Z,62.07
2022-08-29T07:31:45.000Z,61.71
2022-08-29T07:32:45.000Z,61.65
2022-08-29T07:33:45.000Z,61.61
2022-08-29T07:34:44.000Z,61.46
2022-08-29T07:35:44.000Z,61.22
2022-08-29T07:36:44.000Z,61.42
2022-08-29T07:37:44.000Z,60.98
2022-08-29T07:38:44.000Z,60.90
2022-08-29T07:39:45.000Z,61.42
2022-08-29T07:40:45.000Z,61.06
2022-08-29T07:41:44.000Z,60.97
2022-08-29T07:42:44.000Z,61.40
2022-08-29T07:43:44.000Z,60.85
2022-08-29T07:44:44.000Z,61.21
2022-08-29T07:45:44.000Z,60.92
2022-08-29T07:46:44.000Z,60.70
2022-08-29T07:47:44.000Z,61.35
2022-08-29T07:48:45.000Z,60.59
2022-08-29T07:49:45.000Z,60.89
2022-08-29T07:50:44.000Z,60.04
2022-08-29T07:51:44.000Z,60.57
2022-08-29T07:52:46.000Z,60.38
2022-08-29T07:53:45.000Z,61.07
2022-08-29T07:54:45.000Z,60.25
2022-08-29T07:55:45.000Z,60.41
2022-08-29T07:56:47.000Z,60.82
2022-08-29T07:57:50.000Z,60.21
2022-08-29T07:58:45.000Z,60.82
2022-08-29T07:59:45.000Z,60.70
2022-08-29T08:00:44.000Z,61.07
2022-08-29T08:01:45.000Z,60.15
2022-08-29T08:02:45.000Z,60.67
2022-08-29T08:03:45.000Z,60.24
2022-08-29T08:04:45.000Z,59.88
2022-08-29T08:05:44.000Z,60.69
2022-08-29T08:06:45.000Z,60.37
2022-08-29T08:07:45.000Z,60.58
2022-08-29T08:08:45.000Z,60.47
2022-08-29T08:09:45.000Z,60.97
2022-08-29T08:10:45.000Z,60.39
2022-08-29T08:11:45.000Z,59.79
2022-08-29T08:12:46.000Z,59.24
2022-08-29T08:13:45.000Z,58.63
2022-08-29T08:14:44.000Z,58.80
2022-08-29T08:15:45.000Z,59.71
2022-08-29T08:16:45.000Z,60.29
2022-08-29T08:17:44.000Z,59.42
2022-08-29T08:18:45.000Z,58.64
2022-08-29T08:19:44.000Z,58.57
2022-08-29T08:20:46.000Z,58.77
2022-08-29T08:21:44.000Z,58.76
2022-08-29T08:22:44.000Z,58.81
2022-08-29T08:23:44.000Z,59.50
2022-08-29T08:24:44.000Z,59.22
2022-08-29T08:25:44.000Z,59.23
2022-08-29T08:26:45.000Z,59.56
2022-08-29T08:27:44.000Z,59.62
2022-08-29T08:28:45.000Z,60.21
2022-08-29T08:29:44.000Z,58.82
2022-08-29T08:30:44.000Z,59.23
2022-08-29T08:31:46.000Z,59.84
2022-08-29T08:32:44.000Z,60.04
2022-08-29T08:33:45.000Z,60.15
2022-08-29T08:34:44.000Z,59.73
2022-08-29T08:35:44.000Z,59.11
2022-08-29T08:36:44.000Z,58.16
2022-08-29T08:37:44.000Z,58.62
2022-08-29T08:38:45.000Z,59.45
2022-08-29T08:39:44.000Z,58.85
2022-08-29T08:40:52.000Z,58.85
2022-08-29T08:41:51.000Z,58.29
2022-08-29T08:42:44.000Z,58.55
2022-08-29T08:43:54.000Z,58.22
2022-08-29T08:44:59.000Z,58.25
2022-08-29T08:45:45.000Z,57.40
2022-08-29T08:46:49.000Z,57.43
2022-08-29T08:47:52.000Z,57.86
2022-08-29T08:48:46.000Z,57.35
2022-08-29T08:49:55.000Z,56.85
2022-08-29T08:50:53.000Z,56.53
2022-08-29T08:51:51.000Z,56.98
2022-08-29T08:52:52.000Z,56.16
2022-08-29T08:53:48.000Z,56.79
2022-08-29T08:55:07.000Z,56.48
2022-08-29T08:55:49.000Z,57.05
2022-08-29T08:56:55.000Z,56.87
2022-08-29T08:57:55.000Z,56.92
2022-08-29T08:58:54.000Z,56.38
2022-08-29T08:59:53.000Z,56.48
2022-08-29T09:00:57.000Z,56.67
2022-08-29T09:02:00.000Z,57.58
2022-08-29T09:02:56.000Z,57.69
2022-08-29T09:04:09.000Z,58.07
2022-08-29T09:04:55.000Z,57.64
2022-08-29T09:06:15.000Z,57.63
2022-08-29T09:07:05.000Z,57.97
2022-08-29T09:07:54.000Z,57.23
2022-08-29T09:08:55.000Z,57.52
2022-08-29T09:09:57.000Z,56.98
2022-08-29T09:10:59.000Z,55.97
2022-08-29T09:12:00.000Z,56.37
2022-08-29T09:12:57.000Z,56.26
2022-08-29T09:13:55.000Z,56.21
2022-08-29T09:14:56.000Z,55.57
2022-08-29T09:15:48.000Z,55.69
2022-08-29T09:16:50.000Z,55.60
2022-08-29T09:17:53.000Z,55.73
2022-08-29T09:18:45.000Z,56.63
2022-08-29T09:19:46.000Z,56.30
2022-08-29T09:20:44.000Z,56.07
2022-08-29T09:21:48.000Z,55.44
2022-08-29T09:22:56.000Z,55.79
2022-08-29T09:23:51.000Z,56.86
2022-08-29T09:24:53.000Z,56.56
2022-08-29T09:25:45.000Z,56.46
2022-08-29T09:26:44.000Z,55.41
2022-08-29T09:27:48.000Z,54.95
2022-08-29T09:28:45.000Z,55.53
2022-08-29T09:29:47.000Z,54.87
2022-08-29T09:31:04.000Z,54.70
2022-08-29T09:32:04.000Z,55.01
2022-08-29T09:33:00.000Z,55.28
2022-08-29T09:33:48.000Z,55.12
2022-08-29T09:34:46.000Z,55.03
2022-08-29T09:35:50.000Z,54.83
2022-08-29T09:36:50.000Z,54.88
2022-08-29T09:37:53.000Z,55.05
2022-08-29T09:38:44.000Z,55.33
2022-08-29T09:40:09.000Z,55.71
2022-08-29T09:40:53.000Z,54.89
2022-08-29T09:41:49.000Z,54.81
2022-08-29T09:42:58.000Z,55.73
2022-08-29T09:43:47.000Z,55.18
2022-08-29T09:44:54.000Z,54.51
2022-08-29T09:45:54.000Z,55.02
2022-08-29T09:46:44.000Z,54.70
2022-08-29T09:47:44.000Z,54.36
2022-08-29T09:48:47.000Z,54.14
2022-08-29T09:49:54.000Z,54.65
2022-08-29T09:50:44.000Z,54.22
2022-08-29T09:51:47.000Z,54.01
2022-08-29T09:53:01.000Z,54.00
2022-08-29T09:53:44.000Z,53.71
2022-08-29T09:54:44.000Z,54.46
2022-08-29T09:55:44.000Z,54.95
2022-08-29T09:56:57.000Z,54.70
2022-08-29T09:57:50.000Z,55.10
2022-08-29T09:58:57.000Z,54.82
2022-08-29T10:00:04.000Z,54.77
2022-08-29T10:00:59.000Z,54.11
2022-08-29T10:01:44.000Z,53.54
2022-08-29T10:02:47.000Z,52.98
2022-08-29T10:03:54.000Z,53.09
2022-08-29T10:04:49.000Z,53.46
2022-08-29T10:05:45.000Z,52.85
2022-08-29T10:06:44.000Z,53.36
2022-08-29T10:07:49.000Z,53.04
2022-08-29T10:08:54.000Z,53.62
2022-08-29T10:09:53.000Z,52.99
2022-08-29T10:10:52.000Z,53.02
2022-08-29T10:11:54.000Z,52.85
2022-08-29T10:12:55.000Z,52.85
2022-08-29T10:13:55.000Z,52.65
2022-08-29T10:15:00.000Z,51.64
2022-08-29T10:15:51.000Z,52.21
2022-08-29T10:16:58.000Z,51.86
2022-08-29T10:17:57.000Z,51.64
2022-08-29T10:18:53.000Z,51.94
2022-08-29T10:19:45.000Z,51.63
2022-08-29T10:21:10.000Z,51.73
2022-08-29T10:22:03.000Z,51.50
2022-08-29T10:22:57.000Z,51.75
2022-08-29T10:24:05.000Z,52.23
2022-08-29T10:25:07.000Z,51.79
2022-08-29T10:25:44.000Z,52.41
2022-08-29T10:26:56.000Z,51.69
2022-08-29T10:27:57.000Z,52.24
2022-08-29T10:28:54.000Z,51.43
2022-08-29T10:29:56.000Z,51.37
2022-08-29T10:30:56.000Z,51.67
2022-08-29T10:32:03.000Z,51.65
2022-08-29T10:33:02.000Z,51.00
2022-08-29T10:33:54.000Z,50.93
2022-08-29T10:34:54.000Z,50.42
2022-08-29T10:35:59.000Z,50.52
2022-08-29T10:36:51.000Z,50.57
2022-08-29T10:37:54.000Z,50.26
2022-08-29T10:38:53.000Z,50.60
2022-08-29T10:39:56.000Z,50.39
2022-08-29T10:40:51.000Z,51.26
2022-08-29T10:41:56.000Z,51.26
2022-08-29T10:42:47.000Z,50.36
2022-08-29T10:44:08.000Z,49.45
2022-08-29T10:45:01.000Z,49.36
2022-08-29T10:45:54.000Z,49.62
2022-08-29T10:46:54.000Z,50.11
2022-08-29T10:48:02.000Z,50.12
2022-08-29T10:49:08.000Z,50.92
2022-08-29T10:50:07.000Z,50.75
2022-08-29T10:51:02.000Z,50.26
2022-08-29T10:51:55.000Z,49.07
2022-08-29T10:52:55.000Z,49.11
2022-08-29T10:53:51.000Z,48.98
2022-08-29T10:54:58.000Z,49.19
2022-08-29T10:55:54.000Z,48.57
2022-08-29T10:56:47.000Z,49.27
2022-08-29T10:57:55.000Z,49.69
2022-08-29T10:58:58.000Z,48.44
2022-08-29T11:00:08.000Z,48.52
2022-08-29T11:00:52.000Z,48.82
2022-08-29T11:01:59.000Z,49.49
2022-08-29T11:02:56.000Z,48.09
2022-08-29T11:04:07.000Z,48.03
2022-08-29T11:04:52.000Z,48.46
2022-08-29T11:05:54.000Z,47.57
2022-08-29T11:06:54.000Z,48.21
2022-08-29T11:07:58.000Z,47.49
2022-08-29T11:08:55.000Z,47.10
2022-08-29T11:09:53.000Z,47.26
2022-08-29T11:10:51.000Z,46.65
2022-08-29T11:11:57.000Z,47.41
2022-08-29T11:12:55.000Z,47.17
2022-08-29T11:13:51.000Z,46.44
2022-08-29T11:14:52.000Z,46.45
2022-08-29T11:15:56.000Z,46.52
2022-08-29T11:16:48.000Z,45.85
2022-08-29T11:17:52.000Z,45.92
2022-08-29T11:19:08.000Z,45.78
2022-08-29T11:19:56.000Z,46.53
2022-08-29T11:20:50.000Z,46.53
2022-08-29T11:21:58.000Z,46.19
2022-08-29T11:22:56.000Z,45.65
2022-08-29T11:23:46.000Z,45.96
2022-08-29T11:24:55.000Z,45.30
2022-08-29T11:25:45.000Z,46.63
2022-08-29T11:27:15.000Z,45.39
2022-08-29T11:27:56.000Z,45.72
2022-08-29T11:28:55.000Z,45.37
2022-08-29T11:29:59.000Z,45.08
2022-08-29T11:31:17.000Z,45.07
2022-08-29T11:31:54.000Z,45.54
2022-08-29T11:32:53.000Z,44.75
2022-08-29T11:34:04.000Z,45.55
2022-08-29T11:34:54.000Z,45.69
2022-08-29T11:36:08.000Z,46.06
2022-08-29T11:36:55.000Z,45.91
2022-08-29T11:37:54.000Z,46.10
2022-08-29T11:38:54.000Z,46.41
2022-08-29T11:40:09.000Z,44.97
2022-08-29T11:41:05.000Z,45.22
2022-08-29T11:41:47.000Z,44.42
2022-08-29T11:42:48.000Z,44.62
2022-08-29T11:43:48.000Z,45.66
2022-08-29T11:44:49.000Z,44.89
2022-08-29T11:45:57.000Z,45.84
2022-08-29T11:46:49.000Z,45.25
2022-08-29T11:48:14.000Z,45.80
2022-08-29T11:48:47.000Z,45.61
2022-08-29T11:49:49.000Z,45.49
2022-08-29T11:50:45.000Z,44.48
2022-08-29T11:51:49.000Z,45.57
2022-08-29T11:52:54.000Z,45.71
2022-08-29T11:53:46.000Z,45.50
2022-08-29T11:54:49.000Z,45.48
2022-08-29T11:55:55.000Z,44.41
2022-08-29T11:56:44.000Z,43.88
2022-08-29T11:57:48.000Z,44.39
2022-08-29T11:58:50.000Z,45.59
2022-08-29T12:00:17.000Z,44.04
2022-08-29T12:00:48.000Z,44.94
2022-08-29T12:01:59.000Z,45.70
2022-08-29T12:02:44.000Z,45.52
2022-08-29T12:03:45.000Z,45.39
2022-08-29T12:04:57.000Z,45.02
2022-08-29T12:06:05.000Z,44.83
2022-08-29T12:06:55.000Z,44.50
2022-08-29T12:07:56.000Z,44.79
2022-08-29T12:08:53.000Z,44.70
2022-08-29T12:09:50.000Z,43.90
2022-08-29T12:10:52.000Z,43.67
2022-08-29T12:11:54.000Z,44.32
2022-08-29T12:12:47.000Z,45.11
2022-08-29T12:14:00.000Z,44.35
2022-08-29T12:14:48.000Z,43.41
2022-08-29T12:15:49.000Z,42.74
2022-08-29T12:16:48.000Z,43.66
2022-08-29T12:17:44.000Z,43.43
2022-08-29T12:18:48.000Z,44.14
2022-08-29T12:19:52.000Z,44.98
2022-08-29T12:20:47.000Z,45.17
2022-08-29T12:21:46.000Z,44.43
2022-08-29T12:22:54.000Z,44.26
2022-08-29T12:23:44.000Z,44.45
2022-08-29T12:24:45.000Z,43.21
2022-08-29T12:25:51.000Z,43.46
2022-08-29T12:26:44.000Z,42.80
2022-08-29T12:27:54.000Z,43.09
2022-08-29T12:28:54.000Z,43.28
2022-08-29T12:29:44.000Z,42.23
2022-08-29T12:30:54.000Z,43.33
2022-08-29T12:31:54.000Z,41.51
2022-08-29T12:32:56.000Z,42.68
2022-08-29T12:33:57.000Z,40.85
2022-08-29T12:35:00.000Z,43.00
2022-08-29T12:35:54.000Z,41.32
2022-08-29T12:37:02.000Z,42.64
2022-08-29T12:38:01.000Z,42.87
2022-08-29T12:39:02.000Z,42.36
2022-08-29T12:39:59.000Z,41.05
2022-08-29T12:41:07.000Z,42.79
2022-08-29T12:42:00.000Z,42.94
2022-08-29T12:43:05.000Z,42.26
2022-08-29T12:43:45.000Z,41.50
2022-08-29T12:45:14.000Z,42.20
2022-08-29T12:45:45.000Z,42.36
2022-08-29T12:46:48.000Z,42.16
2022-08-29T12:47:48.000Z,42.17
2022-08-29T12:48:52.000Z,40.76
2022-08-29T12:49:53.000Z,40.37
2022-08-29T12:50:46.000Z,40.68
2022-08-29T12:51:48.000Z,41.19
2022-08-29T12:53:11.000Z,41.37